createdAt,value
2018-12-29T00:01:43.371Z,4.10
2018-12-29T00:04:13.704Z,4.70
2018-12-29T00:06:44.036Z,4.67
2018-12-29T00:09:14.411Z,4.87
2018-12-29T00:11:44.780Z,4.43
2018-12-29T00:14:15.109Z,4.70
2018-12-29T00:16:45.548Z,4.63
2018-12-29T00:19:15.871Z,4.70
2018-12-29T00:21:46.207Z,4.33
2018-12-29T00:24:17.503Z,5.20
2018-12-29T00:26:48.168Z,4.60
2018-12-29T00:29:18.527Z,4.33
2018-12-29T00:31:48.856Z,4.87
2018-12-29T00:34:19.181Z,5.07
2018-12-29T00:36:50.012Z,5.13
2018-12-29T00:39:20.351Z,5.17
2018-12-29T00:41:50.677Z,5.30
2018-12-29T00:44:21.091Z,5.73
2018-12-29T00:46:51.491Z,5.70
2018-12-29T00:49:21.852Z,5.20
2018-12-29T00:51:52.182Z,5.30
2018-12-29T00:54:22.595Z,5.43
2018-12-29T00:56:52.955Z,5.33
2018-12-29T00:59:24.395Z,5.40
2018-12-29T01:01:54.719Z,5.20
2018-12-29T01:04:25.161Z,5.20
2018-12-29T01:06:55.483Z,5.43
2018-12-29T01:09:25.851Z,5.90
2018-12-29T01:11:56.195Z,5.40
2018-12-29T01:14:26.559Z,5.40
2018-12-29T01:16:56.887Z,5.03
2018-12-29T01:19:27.255Z,5.10
2018-12-29T01:21:57.579Z,4.57
2018-12-29T01:24:27.948Z,4.93
2018-12-29T01:26:58.286Z,5.07
2018-12-29T01:29:28.655Z,5.37
2018-12-29T01:31:58.988Z,5.80
2018-12-29T01:34:29.323Z,5.93
2018-12-29T01:36:59.663Z,5.80
2018-12-29T01:39:29.995Z,5.57
2018-12-29T01:42:00.332Z,5.33
2018-12-29T01:44:30.655Z,5.90
2018-12-29T01:47:01.020Z,5.97
2018-12-29T01:49:31.351Z,6.43
2018-12-29T01:52:01.721Z,5.30
2018-12-29T01:54:32.123Z,6.00
2018-12-29T01:57:02.493Z,6.17
2018-12-29T01:59:32.903Z,6.03
2018-12-29T02:02:03.279Z,5.60
2018-12-29T02:04:33.616Z,5.63
2018-12-29T02:07:03.995Z,5.90
2018-12-29T02:09:34.753Z,5.20
2018-12-29T02:12:05.181Z,5.63
2018-12-29T02:14:35.511Z,5.00
2018-12-29T02:17:06.181Z,5.93
2018-12-29T02:19:36.515Z,5.50
2018-12-29T02:22:06.847Z,5.00
2018-12-29T02:24:37.181Z,5.57
2018-12-29T02:27:07.648Z,5.03
2018-12-29T02:29:38.012Z,4.60
2018-12-29T02:32:08.349Z,5.30
2018-12-29T02:34:38.748Z,5.10
2018-12-29T02:37:09.080Z,4.83
2018-12-29T02:39:39.438Z,5.23
2018-12-29T02:42:09.763Z,5.40
2018-12-29T02:44:40.124Z,5.50
2018-12-29T02:47:10.457Z,5.10
2018-12-29T02:49:41.069Z,5.13
2018-12-29T02:52:11.522Z,4.60
2018-12-29T02:54:41.883Z,4.83
2018-12-29T02:57:12.219Z,4.70
2018-12-29T02:59:42.659Z,4.70
2018-12-29T03:02:13.062Z,4.50
2018-12-29T03:04:43.407Z,4.73
2018-12-29T03:07:13.816Z,4.83
2018-12-29T03:09:44.156Z,4.17
2018-12-29T03:12:14.527Z,4.77
2018-12-29T03:14:44.864Z,4.93
2018-12-29T03:17:15.240Z,5.23
2018-12-29T03:19:45.643Z,4.63
2018-12-29T03:22:16.016Z,4.47
2018-12-29T03:24:46.428Z,5.07
2018-12-29T03:27:16.775Z,4.97
2018-12-29T03:29:47.113Z,4.83
2018-12-29T03:32:17.453Z,3.90
2018-12-29T03:34:47.852Z,5.17
2018-12-29T03:37:18.307Z,4.30
2018-12-29T03:39:48.673Z,4.97
2018-12-29T03:42:19.010Z,5.50
2018-12-29T03:44:49.451Z,4.83
2018-12-29T03:47:19.778Z,4.90
2018-12-29T03:49:50.111Z,5.10
2018-12-29T03:52:20.452Z,5.23
2018-12-29T03:54:50.817Z,5.50
2018-12-29T03:57:21.151Z,5.20
2018-12-29T03:59:51.520Z,5.70
2018-12-29T04:02:21.916Z,5.40
2018-12-29T04:04:52.259Z,5.17
2018-12-29T04:07:22.646Z,5.43
2018-12-29T04:09:53.031Z,6.53
2018-12-29T04:12:28.123Z,6.03
2018-12-29T04:14:58.495Z,5.63
2018-12-29T04:17:28.825Z,5.50
2018-12-29T04:19:59.335Z,5.67
2018-12-29T04:22:29.747Z,6.00
2018-12-29T04:25:00.088Z,6.10
2018-12-29T04:27:30.504Z,5.80
2018-12-29T04:30:00.848Z,5.97
2018-12-29T04:32:31.215Z,6.03
2018-12-29T04:35:01.540Z,6.10
2018-12-29T04:37:31.900Z,5.57
2018-12-29T04:40:02.243Z,5.67
2018-12-29T04:42:32.615Z,5.73
2018-12-29T04:45:02.935Z,5.87
2018-12-29T04:47:33.267Z,6.40
2018-12-29T04:50:03.716Z,5.80
2018-12-29T04:52:34.055Z,6.73
2018-12-29T04:55:04.463Z,5.87
2018-12-29T04:57:34.807Z,6.33
2018-12-29T05:00:05.980Z,7.80
2018-12-29T05:02:36.692Z,7.53
2018-12-29T05:05:07.271Z,7.33
2018-12-29T05:07:37.631Z,7.87
2018-12-29T05:10:08.035Z,8.30
2018-12-29T05:12:38.430Z,8.87
2018-12-29T05:15:08.795Z,9.10
2018-12-29T05:17:39.221Z,9.23
2018-12-29T05:20:09.627Z,8.57
2018-12-29T05:22:39.995Z,8.77
2018-12-29T05:25:10.339Z,8.63
2018-12-29T05:27:40.707Z,8.73
2018-12-29T05:30:11.047Z,9.10
2018-12-29T05:32:41.419Z,8.03
2018-12-29T05:35:11.756Z,8.93
2018-12-29T05:37:42.120Z,10.03
2018-12-29T05:40:12.494Z,9.00
2018-12-29T05:42:42.868Z,9.40
2018-12-29T05:45:13.240Z,10.23
2018-12-29T05:47:43.604Z,9.53
2018-12-29T05:50:13.951Z,10.03
2018-12-29T05:52:56.732Z,10.27
2018-12-29T05:55:27.075Z,10.23
2018-12-29T05:57:57.460Z,9.73
2018-12-29T06:00:27.809Z,9.43
2018-12-29T06:02:58.179Z,10.60
2018-12-29T06:05:28.600Z,10.93
2018-12-29T06:07:58.947Z,10.97
2018-12-29T06:10:29.315Z,13.17
2018-12-29T06:13:00.023Z,12.37
2018-12-29T06:15:30.470Z,12.50
2018-12-29T06:18:00.804Z,12.00
2018-12-29T06:20:31.176Z,11.17
2018-12-29T06:23:01.820Z,11.00
2018-12-29T06:25:32.183Z,10.27
2018-12-29T06:28:02.511Z,12.03
2018-12-29T06:30:32.891Z,11.50
2018-12-29T06:33:03.231Z,11.77
2018-12-29T06:35:33.580Z,12.43
2018-12-29T06:38:03.955Z,10.67
2018-12-29T06:40:34.283Z,10.17
2018-12-29T06:43:05.102Z,9.83
2018-12-29T06:45:36.112Z,9.73
2018-12-29T06:48:06.491Z,9.00
2018-12-29T06:50:36.820Z,9.43
2018-12-29T06:53:07.179Z,10.37
2018-12-29T06:55:37.523Z,9.77
2018-12-29T06:58:07.891Z,9.53
2018-12-29T07:00:38.244Z,9.67
2018-12-29T07:03:08.663Z,10.13
2018-12-29T07:05:39.003Z,9.83
2018-12-29T07:08:09.383Z,10.20
2018-12-29T07:10:39.716Z,11.17
2018-12-29T07:13:10.077Z,12.83
2018-12-29T07:15:41.484Z,11.67
2018-12-29T07:18:11.847Z,11.93
2018-12-29T07:20:42.199Z,13.40
2018-12-29T07:23:12.627Z,12.17
2018-12-29T07:25:42.964Z,13.50
2018-12-29T07:28:13.407Z,14.87
2018-12-29T07:30:43.807Z,14.30
2018-12-29T07:33:14.579Z,14.10
2018-12-29T07:35:44.920Z,12.90
2018-12-29T07:38:15.264Z,12.97
2018-12-29T07:40:45.643Z,12.53
2018-12-29T07:43:15.977Z,12.30
2018-12-29T07:45:46.359Z,11.97
2018-12-29T07:48:36.596Z,10.93
2018-12-29T07:51:08.002Z,11.17
2018-12-29T07:53:38.339Z,12.67
2018-12-29T07:56:09.937Z,12.53
2018-12-29T07:58:44.884Z,13.90
2018-12-29T08:01:40.045Z,12.73
2018-12-29T08:04:20.939Z,11.93
2018-12-29T08:06:51.316Z,12.90
2018-12-29T08:09:21.642Z,11.83
2018-12-29T08:11:51.372Z,14.73
2018-12-29T08:14:21.611Z,11.50
2018-12-29T08:16:56.796Z,10.90
2018-12-29T08:19:23.960Z,10.53
2018-12-29T08:21:54.307Z,11.63
2018-12-29T08:24:24.244Z,12.17
2018-12-29T08:26:54.619Z,14.10
2018-12-29T08:29:25.048Z,15.80
2018-12-29T08:31:55.496Z,12.73
2018-12-29T08:34:25.824Z,13.10
2018-12-29T08:36:56.229Z,13.00
2018-12-29T08:39:26.556Z,12.73
2018-12-29T08:41:56.949Z,14.03
2018-12-29T08:44:27.319Z,13.77
2018-12-29T08:47:04.277Z,13.20
2018-12-29T08:49:29.731Z,12.93
2018-12-29T08:52:00.104Z,13.53
2018-12-29T08:54:30.439Z,15.13
2018-12-29T08:57:00.811Z,14.73
2018-12-29T08:59:31.152Z,15.40
2018-12-29T09:02:01.615Z,15.40
2018-12-29T09:04:31.948Z,14.23
2018-12-29T09:07:02.323Z,16.30
2018-12-29T09:09:32.647Z,14.10
2018-12-29T09:12:03.057Z,14.40
2018-12-29T09:14:33.739Z,13.90
2018-12-29T09:17:03.882Z,15.37
2018-12-29T09:19:34.127Z,13.70
2018-12-29T09:22:03.938Z,13.60
2018-12-29T09:24:34.251Z,14.73
2018-12-29T09:27:04.617Z,14.10
2018-12-29T09:29:34.947Z,13.63
2018-12-29T09:32:05.429Z,13.83
2018-12-29T09:34:35.116Z,11.60
2018-12-29T09:37:05.445Z,12.93
2018-12-29T09:39:35.211Z,13.10
2018-12-29T09:42:05.459Z,13.30
2018-12-29T09:44:35.977Z,13.77
2018-12-29T09:47:06.401Z,13.57
2018-12-29T09:49:36.863Z,12.60
2018-12-29T09:52:06.943Z,11.93
2018-12-29T09:54:38.044Z,11.87
2018-12-29T09:57:08.371Z,12.97
2018-12-29T09:59:39.072Z,11.63
2018-12-29T10:02:09.328Z,11.97
2018-12-29T10:04:39.682Z,11.87
2018-12-29T10:07:10.364Z,12.07
2018-12-29T10:09:40.835Z,12.17
2018-12-29T10:12:11.167Z,11.13
2018-12-29T10:14:41.555Z,11.00
2018-12-29T10:17:11.915Z,11.80
2018-12-29T10:19:42.428Z,12.03
2018-12-29T10:22:12.770Z,11.93
2018-12-29T10:24:43.203Z,11.30
2018-12-29T10:27:13.544Z,12.27
2018-12-29T10:29:44.247Z,10.53
2018-12-29T10:32:17.318Z,9.80
2018-12-29T10:34:47.948Z,9.43
2018-12-29T10:37:18.647Z,10.07
2018-12-29T10:39:48.982Z,9.63
2018-12-29T10:42:19.311Z,9.90
2018-12-29T10:44:50.815Z,11.83
2018-12-29T10:47:21.259Z,10.60
2018-12-29T10:49:51.591Z,10.27
2018-12-29T10:52:21.959Z,10.77
2018-12-29T10:54:52.291Z,9.97
2018-12-29T10:57:22.672Z,10.50
2018-12-29T10:59:53.011Z,10.27
2018-12-29T11:02:23.455Z,12.13
2018-12-29T11:04:53.783Z,11.13
2018-12-29T11:07:24.118Z,12.07
2018-12-29T11:09:54.459Z,12.50
2018-12-29T11:12:24.788Z,12.80
2018-12-29T11:14:56.223Z,13.40
2018-12-29T11:17:27.703Z,12.70
2018-12-29T11:19:58.079Z,14.37
2018-12-29T11:22:28.411Z,14.00
2018-12-29T11:24:58.851Z,14.17
2018-12-29T11:27:29.183Z,13.30
2018-12-29T11:29:59.552Z,13.60
2018-12-29T11:32:29.887Z,14.63
2018-12-29T11:35:00.227Z,14.43
2018-12-29T11:37:30.637Z,14.67
2018-12-29T11:40:00.997Z,13.27
2018-12-29T11:42:31.433Z,13.13
2018-12-29T11:45:01.896Z,13.23
2018-12-29T11:47:32.270Z,12.53
2018-12-29T11:50:02.632Z,12.70
2018-12-29T11:52:32.703Z,11.53
2018-12-29T11:55:03.031Z,12.67
2018-12-29T11:57:35.144Z,11.93
2018-12-29T12:00:05.179Z,13.03
2018-12-29T12:02:35.496Z,13.60
2018-12-29T12:05:07.396Z,11.97
2018-12-29T12:07:37.807Z,12.00
2018-12-29T12:10:08.271Z,11.90
2018-12-29T12:12:38.883Z,10.93
2018-12-29T12:15:09.400Z,10.43
2018-12-29T12:17:39.843Z,11.73
2018-12-29T12:20:10.275Z,11.43
2018-12-29T12:22:40.736Z,10.77
2018-12-29T12:25:11.148Z,10.40
2018-12-29T12:27:41.608Z,10.33
2018-12-29T12:30:11.375Z,11.10
2018-12-29T12:32:41.707Z,11.07
2018-12-29T12:35:12.127Z,11.27
2018-12-29T12:37:42.544Z,10.63
2018-12-29T12:40:12.963Z,10.90
2018-12-29T12:42:43.372Z,11.97
2018-12-29T12:45:13.792Z,10.97
2018-12-29T12:47:44.215Z,11.20
2018-12-29T12:50:14.632Z,12.30
2018-12-29T12:52:45.052Z,12.43
2018-12-29T12:55:15.463Z,11.77
2018-12-29T12:57:47.771Z,13.53
2018-12-29T13:00:18.121Z,14.77
2018-12-29T13:02:48.624Z,12.83
2018-12-29T13:05:19.075Z,14.03
2018-12-29T13:07:49.483Z,14.83
2018-12-29T13:10:20.344Z,13.67
2018-12-29T13:12:50.799Z,15.50
2018-12-29T13:15:21.848Z,14.73
2018-12-29T13:17:52.365Z,15.10
2018-12-29T13:20:23.148Z,16.97
2018-12-29T13:22:53.555Z,15.57
2018-12-29T13:25:23.960Z,16.17
2018-12-29T13:27:54.418Z,17.27
2018-12-29T13:30:24.823Z,16.83
2018-12-29T13:32:57.827Z,15.43
2018-12-29T13:35:28.245Z,17.73
2018-12-29T13:37:58.733Z,17.60
2018-12-29T13:40:29.199Z,16.80
2018-12-29T13:43:00.047Z,17.60
2018-12-29T13:45:30.468Z,21.30
2018-12-29T13:48:00.919Z,21.83
2018-12-29T13:50:31.628Z,28.77
2018-12-29T13:53:04.103Z,23.97
2018-12-29T13:55:34.637Z,21.83
2018-12-29T13:58:05.055Z,21.43
2018-12-29T14:00:35.509Z,23.17
2018-12-29T14:03:05.919Z,24.73
2018-12-29T14:05:36.495Z,19.90
2018-12-29T14:08:06.911Z,20.97
2018-12-29T14:10:37.371Z,18.93
2018-12-29T14:13:07.218Z,18.60
2018-12-29T14:15:37.600Z,18.27
2018-12-29T14:18:07.463Z,18.93
2018-12-29T14:20:37.781Z,19.13
2018-12-29T14:23:08.215Z,17.43
2018-12-29T14:25:38.966Z,17.73
2018-12-29T14:28:08.735Z,16.20
2018-12-29T14:30:39.094Z,15.67
2018-12-29T14:33:09.503Z,16.87
2018-12-29T14:35:39.943Z,14.60
2018-12-29T14:38:09.703Z,17.43
2018-12-29T14:40:40.052Z,28.13
2018-12-29T14:43:10.468Z,16.17
2018-12-29T14:45:40.883Z,16.93
2018-12-29T14:48:11.135Z,16.63
2018-12-29T14:50:41.455Z,17.50
2018-12-29T14:53:11.895Z,17.90
2018-12-29T14:55:42.315Z,19.67
2018-12-29T14:58:12.763Z,18.53
2018-12-29T15:00:43.191Z,17.40
2018-12-29T15:03:13.608Z,17.67
2018-12-29T15:05:44.076Z,15.27
2018-12-29T15:08:14.512Z,16.57
2018-12-29T15:10:44.964Z,16.23
2018-12-29T15:13:15.676Z,15.77
2018-12-29T15:15:46.126Z,16.60
2018-12-29T15:18:16.948Z,28.43
2018-12-29T15:20:47.699Z,26.07
2018-12-29T15:23:18.517Z,22.63
2018-12-29T15:25:48.980Z,18.57
2018-12-29T15:28:19.399Z,23.23
2018-12-29T15:30:50.147Z,22.67
2018-12-29T15:33:20.869Z,21.43
2018-12-29T15:35:54.215Z,23.90
2018-12-29T15:38:24.634Z,16.67
2018-12-29T15:40:55.349Z,17.10
2018-12-29T15:43:25.833Z,15.87
2018-12-29T15:45:56.235Z,15.70
2018-12-29T15:48:26.996Z,16.50
2018-12-29T15:50:57.517Z,15.67
2018-12-29T15:53:27.968Z,16.27
2018-12-29T15:55:58.367Z,15.60
2018-12-29T15:58:28.818Z,19.03
2018-12-29T16:00:59.227Z,17.87
2018-12-29T16:03:29.745Z,17.70
2018-12-29T16:06:00.364Z,15.07
2018-12-29T16:08:31.089Z,17.20
2018-12-29T16:11:01.545Z,15.03
2018-12-29T16:13:32.003Z,15.03
2018-12-29T16:16:02.539Z,17.77
2018-12-29T16:18:33.259Z,18.73
2018-12-29T16:21:03.843Z,18.50
2018-12-29T16:23:34.430Z,15.23
2018-12-29T16:26:12.530Z,16.10
2018-12-29T16:28:37.166Z,17.07
2018-12-29T16:31:07.259Z,18.33
2018-12-29T16:33:38.029Z,17.60
2018-12-29T16:36:08.079Z,17.47
2018-12-29T16:38:38.561Z,18.23
2018-12-29T16:41:09.359Z,17.63
2018-12-29T16:46:20.499Z,13.87
2018-12-29T16:48:50.947Z,15.40
2018-12-29T16:51:21.399Z,16.23
2018-12-29T16:53:52.201Z,15.23
2018-12-29T16:56:22.602Z,15.07
2018-12-29T16:58:53.052Z,14.43
2018-12-29T17:01:23.455Z,16.83
2018-12-29T17:03:53.879Z,15.63
2018-12-29T17:06:24.319Z,14.17
2018-12-29T17:08:54.843Z,15.63
2018-12-29T17:11:25.312Z,15.17
2018-12-29T17:13:55.719Z,14.43
2018-12-29T17:16:26.188Z,16.23
2018-12-29T17:18:56.600Z,15.50
2018-12-29T17:21:27.020Z,16.53
2018-12-29T17:23:57.439Z,19.70
2018-12-29T17:26:27.861Z,16.13
2018-12-29T17:28:58.308Z,16.43
2018-12-29T17:31:28.727Z,17.97
2018-12-29T17:33:59.180Z,18.27
2018-12-29T17:36:29.601Z,17.20
2018-12-29T17:39:00.019Z,16.23
2018-12-29T17:41:30.439Z,15.77
2018-12-29T17:44:00.199Z,16.87
2018-12-29T17:46:30.740Z,21.20
2018-12-29T17:49:01.195Z,21.73
2018-12-29T17:51:31.617Z,18.47
2018-12-29T17:54:02.023Z,17.90
2018-12-29T17:56:33.204Z,18.37
2018-12-29T17:59:03.675Z,17.80
2018-12-29T18:01:34.096Z,16.87
2018-12-29T18:04:04.550Z,17.83
2018-12-29T18:06:34.960Z,19.03
2018-12-29T18:09:06.703Z,20.00
2018-12-29T18:11:37.155Z,20.07
2018-12-29T18:14:07.603Z,20.17
2018-12-29T18:16:38.035Z,18.37
2018-12-29T18:19:08.496Z,20.00
2018-12-29T18:21:38.921Z,19.53
2018-12-29T18:24:09.458Z,20.67
2018-12-29T18:26:39.880Z,19.40
2018-12-29T18:29:10.303Z,20.00
2018-12-29T18:31:40.756Z,19.70
2018-12-29T18:34:11.155Z,19.43
2018-12-29T18:36:41.607Z,20.77
2018-12-29T18:39:12.015Z,20.47
2018-12-29T18:41:42.504Z,21.37
2018-12-29T18:44:13.212Z,21.57
2018-12-29T18:46:43.739Z,20.43
2018-12-29T18:49:14.169Z,20.90
2018-12-29T18:51:44.592Z,22.87
2018-12-29T18:54:15.059Z,21.43
2018-12-29T18:56:46.339Z,24.37
2018-12-29T18:59:17.197Z,20.70
2018-12-29T19:01:47.604Z,21.30
2018-12-29T19:04:18.060Z,22.07
2018-12-29T19:06:48.509Z,20.50
2018-12-29T19:09:19.053Z,21.13
2018-12-29T19:11:49.942Z,21.87
2018-12-29T19:14:20.660Z,22.37
2018-12-29T19:16:51.488Z,22.00
2018-12-29T19:19:22.499Z,24.30
2018-12-29T19:21:53.349Z,22.63
2018-12-29T19:24:23.837Z,22.90
2018-12-29T19:26:54.307Z,23.83
2018-12-29T19:29:24.720Z,24.97
2018-12-29T19:31:55.648Z,23.40
2018-12-29T19:34:26.966Z,21.47
2018-12-29T19:36:57.615Z,22.93
2018-12-29T19:39:28.492Z,23.23
2018-12-29T19:41:58.931Z,23.07
2018-12-29T19:44:29.640Z,23.37
2018-12-29T19:47:00.403Z,21.80
2018-12-29T19:49:31.139Z,22.47
2018-12-29T19:52:01.595Z,23.63
2018-12-29T19:54:34.343Z,23.90
2018-12-29T19:57:05.287Z,24.03
2018-12-29T19:59:36.120Z,23.17
2018-12-29T20:02:06.621Z,23.97
2018-12-29T20:04:37.147Z,25.20
2018-12-29T20:07:08.047Z,25.53
2018-12-29T20:09:38.572Z,22.80
2018-12-29T20:12:09.035Z,23.83
2018-12-29T20:14:38.807Z,23.70
2018-12-29T20:17:11.048Z,22.53
2018-12-29T20:19:42.159Z,21.17
2018-12-29T20:22:12.599Z,22.93
2018-12-29T20:24:43.537Z,22.60
2018-12-29T20:27:14.009Z,23.00
2018-12-29T20:29:44.456Z,22.57
2018-12-29T20:32:15.215Z,24.00
2018-12-29T20:34:47.763Z,23.23
2018-12-29T20:37:18.575Z,23.27
2018-12-29T20:39:49.663Z,23.87
2018-12-29T20:42:20.619Z,22.40
2018-12-29T20:44:50.993Z,22.53
2018-12-29T20:47:21.574Z,23.93
2018-12-29T20:49:52.044Z,21.13
2018-12-29T20:52:22.596Z,22.07
2018-12-29T20:54:53.328Z,22.27
2018-12-29T20:57:23.865Z,21.57
2018-12-29T20:59:54.308Z,20.90
2018-12-29T21:02:24.900Z,21.17
2018-12-29T21:04:55.448Z,20.67
2018-12-29T21:07:26.547Z,24.13
2018-12-29T21:09:57.015Z,23.60
2018-12-29T21:12:27.431Z,22.00
2018-12-29T21:14:57.882Z,23.90
2018-12-29T21:17:28.291Z,23.47
2018-12-29T21:19:59.152Z,23.10
2018-12-29T21:22:29.551Z,23.33
2018-12-29T21:24:59.355Z,24.70
2018-12-29T21:27:29.676Z,24.27
2018-12-29T21:30:00.186Z,24.40
2018-12-29T21:32:30.917Z,25.60
2018-12-29T21:35:01.317Z,26.50
2018-12-29T21:37:31.803Z,24.57
2018-12-29T21:40:02.187Z,26.27
2018-12-29T21:42:32.640Z,25.97
2018-12-29T21:45:03.348Z,23.77
2018-12-29T21:47:34.199Z,24.07
2018-12-29T21:50:04.719Z,25.40
2018-12-29T21:52:35.146Z,26.60
2018-12-29T21:55:05.627Z,23.07
2018-12-29T21:57:36.032Z,23.97
2018-12-29T22:00:07.243Z,25.20
2018-12-29T22:02:37.655Z,24.63
2018-12-29T22:05:08.108Z,23.97
2018-12-29T22:07:38.515Z,24.67
2018-12-29T22:10:09.098Z,22.90
2018-12-29T22:12:39.552Z,23.27
2018-12-29T22:15:09.967Z,22.57
2018-12-29T22:17:40.391Z,22.93
2018-12-29T22:20:11.108Z,23.83
2018-12-29T22:22:41.563Z,22.53
2018-12-29T22:25:11.964Z,24.43
2018-12-29T22:27:42.387Z,22.57
2018-12-29T22:30:12.800Z,23.57
2018-12-29T22:32:43.444Z,23.80
2018-12-29T22:35:14.000Z,22.87
2018-12-29T22:37:44.447Z,23.30
2018-12-29T22:40:14.347Z,24.27
2018-12-29T22:42:44.775Z,22.63
2018-12-29T22:45:15.279Z,22.13
2018-12-29T22:47:45.726Z,21.90
2018-12-29T22:50:15.885Z,23.13
2018-12-29T22:52:46.215Z,22.60
2018-12-29T22:55:17.112Z,20.93
2018-12-29T22:57:47.723Z,22.43
2018-12-29T23:00:35.915Z,21.03
2018-12-29T23:03:06.339Z,20.70
2018-12-29T23:05:36.752Z,21.77
2018-12-29T23:08:07.177Z,20.80
2018-12-29T23:10:36.966Z,20.97
2018-12-29T23:13:07.587Z,21.33
2018-12-29T23:15:38.458Z,22.03
2018-12-29T23:18:08.875Z,21.57
2018-12-29T23:20:38.977Z,20.20
2018-12-29T23:23:09.386Z,20.93
2018-12-29T23:25:39.999Z,20.73
2018-12-29T23:28:10.432Z,20.20
2018-12-29T23:30:40.312Z,20.77
2018-12-29T23:33:10.888Z,20.87
2018-12-29T23:35:41.296Z,22.20
2018-12-29T23:38:12.043Z,19.63
2018-12-29T23:40:42.460Z,20.93
2018-12-29T23:43:12.870Z,19.80
2018-12-29T23:45:58.856Z,19.83
2018-12-29T23:48:29.223Z,20.70
2018-12-29T23:51:05.661Z,20.40
2018-12-29T23:53:31.711Z,18.93
2018-12-29T23:56:02.991Z,19.47
2018-12-29T23:58:33.327Z,20.20
